Time;durP1;ratioP1;P1;durP2;ratioP2;P2;SDS_P1;SDS_P2;PMS_P1;PMS_P2;Temp;Humidity;BMP_temperature;BMP_pressure;BME280_temperature;BME280_humidity;BME280_pressure;Samples;Min_cycle;Max_cycle;Signal;HPM_P1;HPM_P2
2022/08/31 00:06:15;;;;;;;8.55;4.45;;;22.00;90.70;;;;;;10532252;28;20409;-75
2022/08/31 00:11:26;;;;;;;7.53;4.40;;;22.10;90.90;;;;;;10516035;28;20044;-76
2022/08/31 00:16:31;;;;;;;8.23;4.18;;;21.90;89.90;;;;;;10505301;28;20094;-74
2022/08/31 00:21:35;;;;;;;8.57;4.38;;;21.90;90.10;;;;;;10547587;28;20084;-75
2022/08/31 00:26:37;;;;;;;6.82;4.70;;;22.00;91.30;;;;;;10544746;28;20482;-74
2022/08/31 00:31:39;;;;;;;7.53;4.70;;;22.00;91.30;;;;;;10544763;28;20490;-75
2022/08/31 00:36:46;;;;;;;10.02;4.70;;;21.80;92.80;;;;;;10523296;28;20049;-74
2022/08/31 00:41:48;;;;;;;7.85;4.82;;;21.70;91.20;;;;;;10503832;28;20552;-74
2022/08/31 00:46:50;;;;;;;8.00;4.50;;;21.60;92.60;;;;;;10525183;28;20412;-76
2022/08/31 00:52:00;;;;;;;7.18;4.75;;;21.70;92.10;;;;;;10543828;28;20129;-73
2022/08/31 00:57:04;;;;;;;8.48;4.53;;;21.70;91.60;;;;;;10513312;28;20055;-74
2022/08/31 01:02:06;;;;;;;11.02;4.70;;;21.50;91.60;;;;;;10537516;28;20058;-73
2022/08/31 01:07:10;;;;;;;10.20;4.82;;;21.20;91.90;;;;;;10536129;28;20048;-74
2022/08/31 01:12:12;;;;;;;12.57;5.68;;;20.90;93.70;;;;;;10544323;28;20500;-76
2022/08/31 01:17:16;;;;;;;11.85;5.45;;;20.50;95.40;;;;;;10542870;28;20058;-75
2022/08/31 01:22:27;;;;;;;9.07;5.30;;;20.30;96.60;;;;;;10541204;28;20044;-76
2022/08/31 01:27:35;;;;;;;10.63;5.90;;;20.10;97.20;;;;;;10511278;28;20053;-73
2022/08/31 01:32:38;;;;;;;10.27;5.93;;;20.00;98.10;;;;;;10508660;28;20047;-74
2022/08/31 01:37:40;;;;;;;9.70;5.82;;;20.00;98.60;;;;;;10540695;28;20052;-75
2022/08/31 01:42:44;;;;;;;10.15;6.40;;;19.90;99.40;;;;;;10547875;28;20075;-75
2022/08/31 01:47:46;;;;;;;12.80;5.82;;;19.80;99.90;;;;;;10518644;28;20052;-75
2022/08/31 01:52:48;;;;;;;11.70;6.30;;;20.00;99.90;;;;;;10541987;28;20044;-73
2022/08/31 01:57:51;;;;;;;10.93;6.53;;;19.90;99.90;;;;;;10540890;28;20414;-74
2022/08/31 02:02:53;;;;;;;11.75;7.00;;;19.90;99.90;;;;;;10512087;28;20544;-73
2022/08/31 02:07:56;;;;;;;10.95;6.65;;;19.90;99.90;;;;;;10500111;28;20495;-74
2022/08/31 02:13:00;;;;;;;10.88;6.68;;;19.90;99.90;;;;;;10541548;28;20051;-75
2022/08/31 02:18:02;;;;;;;10.98;6.97;;;19.80;99.90;;;;;;10506580;28;20048;-75
2022/08/31 02:23:04;;;;;;;11.43;6.85;;;19.60;99.90;;;;;;10498965;28;20510;-75
2022/08/31 02:28:07;;;;;;;10.85;7.10;;;19.50;99.90;;;;;;10521524;28;20048;-74
2022/08/31 02:33:10;;;;;;;9.82;7.40;;;19.60;99.90;;;;;;10537072;28;20076;-75
2022/08/31 02:38:12;;;;;;;13.20;7.38;;;19.70;99.90;;;;;;10539728;28;20044;-76
2022/08/31 02:43:16;;;;;;;14.18;7.65;;;19.70;99.90;;;;;;10541593;28;20055;-74
2022/08/31 02:48:18;;;;;;;13.82;7.45;;;19.80;99.90;;;;;;10540359;28;20089;-74
2022/08/31 02:53:23;;;;;;;12.40;8.00;;;19.80;99.90;;;;;;10536900;28;20054;-76
2022/08/31 02:58:27;;;;;;;16.10;8.25;;;19.50;99.90;;;;;;10555555;28;20131;-77
2022/08/31 03:03:29;;;;;;;11.32;7.88;;;19.30;99.90;;;;;;10560908;28;20070;-74
2022/08/31 03:08:31;;;;;;;13.93;8.05;;;19.40;99.90;;;;;;10517140;28;20048;-73
2022/08/31 03:13:36;;;;;;;11.93;8.38;;;19.60;99.90;;;;;;10508544;28;20049;-73
2022/08/31 03:18:38;;;;;;;14.68;8.48;;;19.50;99.90;;;;;;10497105;28;20094;-75
2022/08/31 03:23:41;;;;;;;16.73;9.63;;;19.50;99.90;;;;;;10526379;28;20060;-76
2022/08/31 03:28:44;;;;;;;12.85;7.88;;;19.50;99.90;;;;;;10535900;28;20055;-74
2022/08/31 03:33:47;;;;;;;12.05;8.55;;;19.50;99.90;;;;;;10548249;28;20059;-75
2022/08/31 03:38:49;;;;;;;12.48;8.60;;;19.40;99.90;;;;;;10546008;28;20067;-74
2022/08/31 03:43:53;;;;;;;11.50;8.50;;;19.40;99.90;;;;;;10529297;28;20395;-72
2022/08/31 03:48:56;;;;;;;11.15;7.55;;;19.40;99.90;;;;;;10506790;28;20080;-74
2022/08/31 03:53:58;;;;;;;15.35;8.10;;;19.40;99.90;;;;;;10528192;28;20070;-76
2022/08/31 03:59:01;;;;;;;11.90;7.93;;;19.40;99.90;;;;;;10505061;28;20101;-74
2022/08/31 04:04:04;;;;;;;11.95;7.90;;;19.40;99.90;;;;;;10538233;28;20100;-74
2022/08/31 04:09:06;;;;;;;12.05;8.52;;;19.50;99.90;;;;;;10588010;28;20044;-75
2022/08/31 04:14:11;;;;;;;11.38;7.95;;;19.40;99.90;;;;;;10552416;28;20055;-75
2022/08/31 04:19:14;;;;;;;14.65;9.10;;;19.40;99.90;;;;;;10523366;28;20055;-74
2022/08/31 04:24:16;;;;;;;13.55;8.70;;;19.20;99.90;;;;;;10505397;28;20044;-76
2022/08/31 04:29:20;;;;;;;13.13;9.30;;;19.10;99.90;;;;;;10504926;28;20052;-74
2022/08/31 04:34:22;;;;;;;11.27;8.60;;;19.00;99.90;;;;;;10504068;28;20052;-74
2022/08/31 04:39:24;;;;;;;13.30;9.57;;;18.80;99.90;;;;;;10503380;28;20441;-76
2022/08/31 04:44:27;;;;;;;12.82;8.93;;;18.70;99.90;;;;;;10503982;28;20051;-75
2022/08/31 04:49:29;;;;;;;12.70;9.30;;;18.70;99.90;;;;;;10503886;28;20052;-76
2022/08/31 04:54:32;;;;;;;13.00;9.70;;;18.80;99.90;;;;;;10502589;28;20048;-75
2022/08/31 04:59:35;;;;;;;15.57;10.98;;;18.80;99.90;;;;;;10503035;28;20060;-74
2022/08/31 05:04:37;;;;;;;16.10;11.48;;;18.60;99.90;;;;;;10528327;28;20052;-75
2022/08/31 05:09:39;;;;;;;17.10;11.57;;;18.60;99.90;;;;;;10505834;28;20094;-75
2022/08/31 05:14:43;;;;;;;15.25;11.60;;;18.60;99.90;;;;;;10503051;28;20060;-74
2022/08/31 05:19:45;;;;;;;17.30;11.23;;;18.60;99.90;;;;;;10513754;28;20056;-75
2022/08/31 05:24:47;;;;;;;16.75;12.18;;;18.60;99.90;;;;;;10502016;28;20057;-73
2022/08/31 05:29:50;;;;;;;18.42;13.00;;;18.60;99.90;;;;;;10501213;28;20075;-74
2022/08/31 05:34:52;;;;;;;15.80;11.48;;;18.60;99.90;;;;;;10533305;28;20048;-75
2022/08/31 05:39:54;;;;;;;14.82;11.65;;;18.70;99.90;;;;;;10542665;28;20101;-74
2022/08/31 05:44:58;;;;;;;15.60;11.52;;;18.70;99.90;;;;;;10532294;28;20097;-75
2022/08/31 05:50:00;;;;;;;15.75;10.93;;;18.70;99.90;;;;;;10500195;28;20509;-75
2022/08/31 05:55:02;;;;;;;15.40;10.85;;;18.90;99.90;;;;;;10499583;28;20040;-75
2022/08/31 06:00:09;;;;;;;16.33;10.80;;;18.80;99.90;;;;;;10541536;28;20044;-73
2022/08/31 06:05:11;;;;;;;17.33;11.13;;;18.70;99.90;;;;;;10541858;28;20056;-74
2022/08/31 06:10:13;;;;;;;15.13;11.25;;;18.80;99.90;;;;;;10541101;28;20048;-74
2022/08/31 06:15:17;;;;;;;13.85;10.25;;;18.70;99.90;;;;;;10541643;28;20075;-74
2022/08/31 06:20:19;;;;;;;11.77;9.20;;;18.70;99.90;;;;;;10541335;28;20059;-74
2022/08/31 06:25:23;;;;;;;14.05;9.75;;;18.70;99.90;;;;;;10534291;28;20051;-75
2022/08/31 06:30:27;;;;;;;13.57;9.68;;;18.70;99.90;;;;;;10498842;28;20400;-74
2022/08/31 06:35:29;;;;;;;10.77;8.35;;;18.70;99.90;;;;;;10498719;28;20080;-75
2022/08/31 06:40:31;;;;;;;10.73;7.45;;;18.80;99.90;;;;;;10499452;28;20075;-75
2022/08/31 06:45:35;;;;;;;10.70;7.57;;;18.70;99.90;;;;;;10499427;28;20048;-74
2022/08/31 06:50:39;;;;;;;12.27;7.55;;;18.70;99.90;;;;;;10498085;28;20044;-77
2022/08/31 06:55:41;;;;;;;9.48;7.38;;;18.70;99.90;;;;;;10499500;28;20052;-73
2022/08/31 07:00:44;;;;;;;10.15;6.72;;;18.70;99.90;;;;;;10499090;28;20058;-75
2022/08/31 07:05:46;;;;;;;8.60;6.82;;;18.80;99.90;;;;;;10499865;28;20052;-74
2022/08/31 07:10:49;;;;;;;8.90;6.78;;;18.80;99.90;;;;;;10515205;28;20059;-74
2022/08/31 07:16:03;;;;;;;9.35;6.50;;;18.70;99.90;;;;;;10562966;28;20059;-74
2022/08/31 07:21:12;;;;;;;10.80;6.75;;;18.70;99.90;;;;;;10543138;28;20044;-75
2022/08/31 07:26:17;;;;;;;11.18;7.13;;;18.70;99.90;;;;;;10517669;28;20063;-75
2022/08/31 07:31:22;;;;;;;9.57;6.90;;;18.60;99.90;;;;;;10501586;28;20044;-75
2022/08/31 07:36:26;;;;;;;10.43;7.30;;;18.70;99.90;;;;;;10537113;28;20456;-75
2022/08/31 07:46:54;;;;;;;10.95;7.07;;;18.70;99.90;;;;;;10511232;28;20059;-74
2022/08/31 07:51:58;;;;;;;10.43;6.75;;;18.70;99.90;;;;;;10539018;28;20119;-75
2022/08/31 07:57:03;;;;;;;10.77;7.30;;;18.70;99.90;;;;;;10551537;28;20482;-75
2022/08/31 08:02:07;;;;;;;11.48;7.30;;;18.70;99.90;;;;;;10538702;28;20055;-73
2022/08/31 08:07:10;;;;;;;9.32;7.25;;;18.70;99.90;;;;;;10539353;28;20048;-76
2022/08/31 08:12:13;;;;;;;10.70;6.88;;;18.70;99.90;;;;;;10546285;28;20051;-76
2022/08/31 08:17:17;;;;;;;8.40;6.43;;;18.80;99.90;;;;;;10541681;28;20059;-74
2022/08/31 08:22:19;;;;;;;9.57;6.82;;;18.80;99.90;;;;;;10546084;28;20428;-73
2022/08/31 08:27:21;;;;;;;8.48;6.15;;;18.90;99.90;;;;;;10543676;28;20044;-75
2022/08/31 08:32:24;;;;;;;8.90;6.07;;;18.90;99.90;;;;;;10506121;28;20045;-75
2022/08/31 08:37:27;;;;;;;9.43;6.75;;;19.00;99.90;;;;;;10503136;28;20433;-75
2022/08/31 08:42:29;;;;;;;8.25;6.22;;;19.00;99.90;;;;;;10504283;28;20052;-75
2022/08/31 08:47:37;;;;;;;9.90;6.45;;;18.90;99.90;;;;;;10542939;28;20101;-75
2022/08/31 08:52:41;;;;;;;9.13;6.10;;;19.00;99.90;;;;;;10537438;28;20048;-75
2022/08/31 08:57:48;;;;;;;11.45;6.88;;;19.00;99.90;;;;;;10542581;28;20044;-74
2022/08/31 09:02:57;;;;;;;9.32;6.70;;;19.10;99.90;;;;;;10544306;28;20502;-76
2022/08/31 09:08:58;;;;;;;8.98;6.80;;;19.10;99.90;;;;;;10541503;28;20056;-74
2022/08/31 09:14:19;;;;;;;10.70;7.25;;;19.10;99.90;;;;;;10439703;28;20084;-75
2022/08/31 09:19:22;;;;;;;9.55;7.03;;;19.00;99.90;;;;;;10499344;28;20077;-75
2022/08/31 09:24:28;;;;;;;10.07;6.70;;;19.00;99.90;;;;;;10502905;28;20048;-73
2022/08/31 09:29:32;;;;;;;9.32;6.97;;;19.20;99.90;;;;;;10502750;28;20465;-73
2022/08/31 09:34:39;;;;;;;11.75;7.63;;;19.30;99.90;;;;;;10537216;28;20056;-75
2022/08/31 09:39:46;;;;;;;9.45;6.55;;;19.40;99.90;;;;;;10537634;28;20060;-75
2022/08/31 09:44:51;;;;;;;9.55;6.28;;;19.50;99.90;;;;;;10556126;28;20044;-74
2022/08/31 09:49:57;;;;;;;10.77;7.35;;;19.70;99.90;;;;;;10524068;28;20103;-74
2022/08/31 09:55:16;;;;;;;10.02;7.00;;;19.70;99.90;;;;;;10495193;28;20091;-74
2022/08/31 10:00:34;;;;;;;9.48;6.40;;;19.90;99.90;;;;;;10495995;28;20135;-74
2022/08/31 10:05:43;;;;;;;9.20;6.10;;;20.20;99.90;;;;;;10500007;28;20048;-74
2022/08/31 10:10:49;;;;;;;10.05;7.47;;;20.30;99.90;;;;;;10537829;28;20052;-75
2022/08/31 10:15:56;;;;;;;9.00;6.32;;;20.30;99.90;;;;;;10535164;28;20047;-75
2022/08/31 10:21:07;;;;;;;8.60;6.22;;;20.40;99.90;;;;;;10536240;28;20048;-75
2022/08/31 10:26:17;;;;;;;10.00;7.13;;;20.50;99.90;;;;;;10536260;28;20051;-75
2022/08/31 10:31:28;;;;;;;10.60;7.50;;;20.40;99.90;;;;;;10534723;28;20048;-74
2022/08/31 10:36:37;;;;;;;13.57;8.30;;;20.50;99.90;;;;;;10535887;28;20051;-75
2022/08/31 10:41:47;;;;;;;14.48;9.80;;;20.50;99.90;;;;;;10523576;28;20053;-74
2022/08/31 10:46:53;;;;;;;13.52;8.93;;;20.20;99.90;;;;;;10530917;28;20520;-74
2022/08/31 10:52:05;;;;;;;12.05;8.65;;;20.40;99.90;;;;;;10533337;28;20078;-74
2022/08/31 10:57:19;;;;;;;11.43;8.68;;;20.70;99.90;;;;;;10533345;28;20130;-75
2022/08/31 11:02:43;;;;;;;11.50;8.35;;;20.90;99.90;;;;;;10535191;28;20079;-74
2022/08/31 11:07:56;;;;;;;14.27;9.65;;;20.70;99.90;;;;;;10512046;28;20064;-73
2022/08/31 11:13:13;;;;;;;12.98;8.38;;;20.50;99.90;;;;;;10520719;28;20048;-73
2022/08/31 11:18:55;;;;;;;13.68;8.85;;;20.60;99.90;;;;;;10534527;28;20044;-74
2022/08/31 11:24:30;;;;;;;12.55;8.85;;;20.80;99.90;;;;;;10534266;28;20063;-75
2022/08/31 11:29:42;;;;;;;10.77;8.40;;;20.80;99.90;;;;;;10534620;28;20059;-75
2022/08/31 11:34:50;;;;;;;13.07;9.77;;;20.90;99.90;;;;;;10537830;28;20048;-75
2022/08/31 11:39:56;;;;;;;12.20;9.97;;;21.00;99.90;;;;;;10546401;28;20056;-75
2022/08/31 11:45:08;;;;;;;14.85;10.15;;;21.00;99.90;;;;;;10536110;28;20416;-75
2022/08/31 11:50:54;;;;;;;14.48;10.82;;;21.00;99.90;;;;;;10514608;28;20052;-74
2022/08/31 11:56:05;;;;;;;13.90;10.30;;;21.00;99.90;;;;;;10541732;28;20080;-76
2022/08/31 12:01:33;;;;;;;13.80;10.65;;;21.20;99.90;;;;;;10542599;28;20056;-73
2022/08/31 12:07:09;;;;;;;;;;;21.20;99.90;;;;;;10540761;28;20048;-74
2022/08/31 12:12:26;;;;;;;14.18;10.35;;;21.40;99.90;;;;;;10541339;28;19924;-74
2022/08/31 12:17:37;;;;;;;14.93;10.80;;;21.30;99.90;;;;;;10465515;28;20044;-74
2022/08/31 12:28:52;;;;;;;13.95;10.73;;;21.10;99.90;;;;;;10540412;28;20431;-75
2022/08/31 12:34:03;;;;;;;15.63;10.45;;;21.30;99.90;;;;;;10538369;28;20397;-74
2022/08/31 12:39:09;;;;;;;13.20;9.50;;;21.30;99.90;;;;;;10539335;28;20056;-74
2022/08/31 12:44:19;;;;;;;13.18;9.27;;;21.30;99.90;;;;;;10501535;28;20044;-74
2022/08/31 12:49:53;;;;;;;13.52;9.48;;;21.60;99.90;;;;;;10497063;28;20056;-74
2022/08/31 12:55:22;;;;;;;15.20;9.20;;;21.80;99.80;;;;;;10498054;28;20051;-73
2022/08/31 13:00:28;;;;;;;13.77;9.32;;;21.90;99.90;;;;;;10497361;28;20052;-75
2022/08/31 13:05:34;;;;;;;15.57;9.73;;;22.10;99.10;;;;;;10532129;28;20063;-74
2022/08/31 13:10:38;;;;;;;15.07;8.68;;;22.10;99.40;;;;;;10512411;28;20056;-74
2022/08/31 13:15:45;;;;;;;14.15;8.55;;;22.10;99.30;;;;;;10496517;28;20418;-74
2022/08/31 13:20:48;;;;;;;15.13;9.50;;;22.30;98.30;;;;;;10535721;28;20484;-75
2022/08/31 13:26:01;;;;;;;14.82;9.13;;;22.30;98.80;;;;;;10521816;28;20051;-73
2022/08/31 13:31:08;;;;;;;13.50;8.27;;;22.20;98.70;;;;;;10496086;28;20114;-74
2022/08/31 13:36:30;;;;;;;13.07;8.15;;;22.30;99.00;;;;;;10495525;28;20117;-74
2022/08/31 13:41:37;;;;;;;12.93;8.13;;;22.20;98.20;;;;;;10496401;28;20395;-75
2022/08/31 13:46:48;;;;;;;11.18;8.82;;;22.00;98.20;;;;;;10495339;28;20123;-75
2022/08/31 13:51:51;;;;;;;13.05;8.35;;;22.00;98.20;;;;;;10532592;28;20490;-75
2022/08/31 13:56:57;;;;;;;13.45;8.77;;;22.30;98.10;;;;;;10508112;28;20063;-76
2022/08/31 14:02:28;;;;;;;14.43;8.63;;;22.60;97.70;;;;;;10497716;28;20094;-74
2022/08/31 14:07:52;;;;;;;14.10;7.80;;;23.30;96.80;;;;;;10493928;28;20052;-74
2022/08/31 14:12:58;;;;;;;11.77;7.65;;;24.00;96.60;;;;;;10494765;28;20048;-74
2022/08/31 14:18:18;;;;;;;10.27;7.72;;;24.40;95.30;;;;;;10494151;28;20048;-73
2022/08/31 14:23:33;;;;;;;12.48;8.82;;;24.60;94.50;;;;;;10494894;28;20131;-75
2022/08/31 14:28:39;;;;;;;12.20;8.07;;;24.40;93.90;;;;;;10494159;28;20139;-74
2022/08/31 14:33:45;;;;;;;12.35;8.15;;;24.30;94.80;;;;;;10494065;28;20067;-74
2022/08/31 14:38:49;;;;;;;10.98;7.95;;;24.20;94.60;;;;;;10501587;28;20056;-74
2022/08/31 14:43:51;;;;;;;12.95;7.55;;;24.30;94.80;;;;;;10534623;28;20072;-75
2022/08/31 14:48:56;;;;;;;14.10;8.63;;;24.60;94.90;;;;;;10532333;28;20051;-73
2022/08/31 14:54:00;;;;;;;13.70;9.35;;;24.80;93.60;;;;;;10519800;28;20067;-74
2022/08/31 14:59:12;;;;;;;11.82;8.48;;;25.00;92.30;;;;;;10517704;28;20048;-74
2022/08/31 15:04:19;;;;;;;11.38;9.18;;;25.20;92.10;;;;;;10494540;28;20044;-75
2022/08/31 15:09:23;;;;;;;13.02;7.85;;;25.90;90.90;;;;;;10524375;28;20090;-75
2022/08/31 15:14:25;;;;;;;13.18;9.00;;;26.70;90.10;;;;;;10507363;28;20055;-77
2022/08/31 15:19:29;;;;;;;13.15;8.27;;;26.50;88.30;;;;;;10508245;28;20103;-75
2022/08/31 15:24:31;;;;;;;10.93;7.25;;;27.20;86.20;;;;;;10493432;28;20059;-76
2022/08/31 15:29:33;;;;;;;12.30;7.55;;;27.30;84.40;;;;;;10514591;28;20101;-77
2022/08/31 15:34:38;;;;;;;12.50;6.78;;;26.40;85.90;;;;;;10533891;28;20063;-75
2022/08/31 15:39:47;;;;;;;13.23;8.20;;;26.20;88.00;;;;;;10518732;28;20056;-74
2022/08/31 15:44:54;;;;;;;12.75;7.32;;;25.50;88.00;;;;;;10491667;28;20052;-74
2022/08/31 15:49:58;;;;;;;13.00;7.23;;;25.00;90.80;;;;;;10533056;28;20054;-78
2022/08/31 15:55:00;;;;;;;9.65;6.20;;;24.50;91.30;;;;;;10516202;28;20052;-75
2022/08/31 16:00:03;;;;;;;7.47;4.80;;;24.30;91.60;;;;;;10536784;28;20126;-76
2022/08/31 16:05:08;;;;;;;7.18;4.35;;;24.00;90.40;;;;;;10503982;28;20053;-73
2022/08/31 16:10:12;;;;;;;8.20;4.15;;;23.80;90.50;;;;;;10521460;28;20056;-75
2022/08/31 16:15:15;;;;;;;5.88;4.30;;;23.70;90.40;;;;;;10533053;28;20059;-76
2022/08/31 16:20:19;;;;;;;6.65;4.22;;;23.40;90.30;;;;;;10513602;28;20052;-74
2022/08/31 16:25:24;;;;;;;8.15;4.97;;;23.20;90.80;;;;;;10530955;28;20059;-74
2022/08/31 16:30:26;;;;;;;7.47;4.55;;;23.10;91.40;;;;;;10530238;28;20064;-75
2022/08/31 16:35:30;;;;;;;7.28;4.78;;;22.90;91.50;;;;;;10492745;28;20049;-75
2022/08/31 16:40:32;;;;;;;7.22;4.68;;;22.80;92.20;;;;;;10498371;28;20060;-76
2022/08/31 16:45:37;;;;;;;9.32;4.40;;;22.80;92.80;;;;;;10506380;28;20070;-74
2022/08/31 16:50:45;;;;;;;6.82;4.90;;;22.60;93.80;;;;;;10495715;28;20060;-76
2022/08/31 16:55:47;;;;;;;;;;;22.50;94.50;;;;;;10511599;28;20049;-74
2022/08/31 17:00:49;;;;;;;8.68;5.00;;;22.50;94.40;;;;;;10510322;28;20289;-76
2022/08/31 17:05:53;;;;;;;7.80;5.13;;;22.40;94.50;;;;;;10518573;28;20048;-75
2022/08/31 17:10:55;;;;;;;8.05;5.15;;;22.30;94.50;;;;;;10497458;28;20053;-75
2022/08/31 17:15:57;;;;;;;7.93;5.20;;;22.30;95.80;;;;;;10495902;28;20139;-74
2022/08/31 17:21:00;;;;;;;7.88;4.72;;;22.30;96.30;;;;;;10488131;28;20123;-75
2022/08/31 17:26:05;;;;;;;7.93;4.70;;;22.30;96.70;;;;;;10512013;28;20055;-77
2022/08/31 17:31:07;;;;;;;8.50;4.32;;;22.40;97.10;;;;;;10516896;28;20044;-78
2022/08/31 17:36:10;;;;;;;9.77;5.03;;;22.70;96.60;;;;;;10527810;28;20055;-80
2022/08/31 17:41:13;;;;;;;7.72;4.78;;;22.60;97.10;;;;;;10531460;28;20049;-75
2022/08/31 17:46:15;;;;;;;10.30;4.70;;;22.50;97.20;;;;;;10495880;28;20052;-77
2022/08/31 17:51:26;;;;;;;8.23;4.68;;;22.30;97.90;;;;;;10497216;28;20635;-76
2022/08/31 17:56:33;;;;;;;7.97;4.78;;;22.20;97.80;;;;;;10515247;28;20117;-79
2022/08/31 18:01:35;;;;;;;11.80;7.20;;;21.90;97.70;;;;;;10511225;28;20064;-77
2022/08/31 18:06:41;;;;;;;8.02;4.78;;;21.80;98.20;;;;;;10537486;28;20048;-79
2022/08/31 18:11:45;;;;;;;8.55;4.50;;;21.70;98.60;;;;;;10557475;28;20031;-78
2022/08/31 18:16:48;;;;;;;7.18;4.80;;;21.60;98.90;;;;;;10568674;28;20104;-77
2022/08/31 18:21:52;;;;;;;8.45;5.07;;;21.60;99.50;;;;;;10521794;28;20052;-78
2022/08/31 18:26:56;;;;;;;10.32;5.63;;;21.40;99.60;;;;;;10519774;28;20056;-75
2022/08/31 18:32:02;;;;;;;8.95;5.10;;;21.20;99.90;;;;;;10510175;28;20132;-76
2022/08/31 18:37:08;;;;;;;10.32;4.90;;;21.10;99.90;;;;;;10503454;28;20080;-78
2022/08/31 18:47:30;;;;;;;10.43;5.85;;;20.90;99.90;;;;;;10516375;28;20048;-76
2022/08/31 18:52:39;;;;;;;8.57;5.22;;;20.70;99.90;;;;;;10494132;28;20049;-76
2022/08/31 18:57:41;;;;;;;8.98;5.40;;;20.70;99.90;;;;;;10516924;28;20486;-78
2022/08/31 19:02:44;;;;;;;8.70;5.05;;;20.60;99.90;;;;;;10530445;28;20059;-78
2022/08/31 19:07:47;;;;;;;7.60;5.13;;;20.50;99.90;;;;;;10534543;28;20047;-77
2022/08/31 19:12:50;;;;;;;10.20;5.22;;;20.30;99.90;;;;;;10496497;28;20052;-76
2022/08/31 19:17:53;;;;;;;9.68;4.95;;;20.20;99.90;;;;;;10531763;28;20055;-77
2022/08/31 19:22:56;;;;;;;8.57;5.38;;;20.20;99.90;;;;;;10533171;28;20052;-75
2022/08/31 19:28:00;;;;;;;13.00;5.82;;;20.20;99.90;;;;;;10532674;28;20098;-77
2022/08/31 19:33:06;;;;;;;10.52;5.70;;;20.20;99.90;;;;;;10535553;28;20071;-79
2022/08/31 19:38:09;;;;;;;7.70;5.55;;;20.10;99.90;;;;;;10534659;28;20124;-77
2022/08/31 19:43:11;;;;;;;9.35;5.70;;;20.00;99.90;;;;;;10496405;28;20059;-76
2022/08/31 19:48:13;;;;;;;11.88;5.70;;;19.90;99.90;;;;;;10523154;28;20490;-79
2022/08/31 19:53:18;;;;;;;10.52;6.15;;;19.90;99.90;;;;;;10529495;28;20044;-78
2022/08/31 19:58:24;;;;;;;8.25;6.15;;;19.70;99.90;;;;;;10538155;28;20210;-76
2022/08/31 20:03:26;;;;;;;14.30;9.27;;;19.50;99.90;;;;;;10506027;28;20049;-73
2022/08/31 20:08:29;;;;;;;23.60;13.27;;;19.60;99.90;;;;;;10494939;28;20044;-75
2022/08/31 20:13:31;;;;;;;11.30;7.53;;;19.50;99.90;;;;;;10498265;28;20052;-73
2022/08/31 20:18:36;;;;;;;10.48;6.55;;;19.50;99.90;;;;;;10512517;28;20059;-73
2022/08/31 20:23:40;;;;;;;9.75;7.00;;;19.40;99.90;;;;;;10503143;28;20086;-74
2022/08/31 20:28:42;;;;;;;13.68;7.15;;;19.30;99.90;;;;;;10522450;28;20053;-73
2022/08/31 20:33:45;;;;;;;10.98;7.30;;;19.10;99.90;;;;;;10522487;28;20052;-74
2022/08/31 20:38:55;;;;;;;11.07;6.93;;;19.00;99.90;;;;;;10521033;28;20060;-75
2022/08/31 20:44:08;;;;;;;12.30;7.07;;;19.00;99.90;;;;;;10499023;28;20524;-76
2022/08/31 20:49:24;;;;;;;9.75;6.70;;;19.00;99.90;;;;;;10507930;28;20044;-76
2022/08/31 20:54:30;;;;;;;9.15;6.50;;;18.90;99.90;;;;;;10528896;28;20044;-73
2022/08/31 20:59:33;;;;;;;11.70;6.30;;;18.80;99.90;;;;;;10514200;28;20098;-75
2022/08/31 21:04:39;;;;;;;10.65;6.57;;;18.50;99.90;;;;;;10498003;28;20052;-75
2022/08/31 21:09:45;;;;;;;14.25;6.68;;;18.40;99.90;;;;;;10533438;28;20414;-75
2022/08/31 21:14:47;;;;;;;10.45;6.82;;;18.30;99.90;;;;;;10500524;28;20051;-75
2022/08/31 21:19:50;;;;;;;10.52;7.50;;;18.20;99.90;;;;;;10538077;28;20055;-74
2022/08/31 21:25:02;;;;;;;11.27;7.00;;;18.30;99.90;;;;;;10528492;28;20139;-74
2022/08/31 21:30:05;;;;;;;9.52;7.13;;;18.20;99.90;;;;;;10516165;28;20063;-75
2022/08/31 21:35:09;;;;;;;10.20;7.28;;;18.20;99.90;;;;;;10542289;28;20074;-77
2022/08/31 21:40:12;;;;;;;10.98;7.15;;;18.30;99.90;;;;;;10511914;28;20060;-74
2022/08/31 21:45:15;;;;;;;11.50;7.25;;;18.30;99.90;;;;;;10540504;28;20052;-74
2022/08/31 21:50:17;;;;;;;10.82;7.35;;;18.30;99.90;;;;;;10521655;28;20264;-74
2022/08/31 21:55:20;;;;;;;11.85;7.72;;;18.20;99.90;;;;;;10535853;28;20048;-75
2022/08/31 22:00:28;;;;;;;10.57;8.32;;;18.20;99.90;;;;;;10542710;28;20044;-74
2022/08/31 22:05:31;;;;;;;11.75;7.55;;;17.90;99.90;;;;;;10524051;28;20104;-75
2022/08/31 22:10:39;;;;;;;11.65;7.07;;;17.90;99.90;;;;;;10500035;28;20048;-75
2022/08/31 22:15:42;;;;;;;12.75;7.97;;;17.90;99.90;;;;;;10539322;28;20047;-75
2022/08/31 22:20:45;;;;;;;10.32;7.30;;;17.80;99.90;;;;;;10529402;28;20056;-74
2022/08/31 22:25:48;;;;;;;11.88;7.55;;;17.80;99.90;;;;;;10500410;28;20040;-74
2022/08/31 22:30:50;;;;;;;13.45;7.30;;;17.70;99.90;;;;;;10499997;28;20067;-76
2022/08/31 22:35:52;;;;;;;9.52;6.75;;;17.80;99.90;;;;;;10513216;28;20048;-79
2022/08/31 22:40:56;;;;;;;9.80;6.68;;;17.70;99.90;;;;;;10498519;28;20052;-79
2022/08/31 22:45:58;;;;;;;11.25;6.93;;;17.70;99.90;;;;;;10537727;28;20554;-79
2022/08/31 22:51:04;;;;;;;9.30;6.65;;;17.70;99.90;;;;;;10497329;28;20052;-79
2022/08/31 22:56:12;;;;;;;11.95;6.78;;;17.60;99.90;;;;;;10521573;28;20048;-78
2022/08/31 23:01:19;;;;;;;10.67;7.33;;;17.40;99.90;;;;;;10529409;28;20048;-76
2022/08/31 23:06:23;;;;;;;15.77;6.53;;;17.50;99.90;;;;;;10536820;28;20039;-77
2022/08/31 23:11:27;;;;;;;8.68;6.50;;;17.70;99.90;;;;;;10539153;28;20489;-79
2022/08/31 23:16:34;;;;;;;10.25;7.18;;;17.60;99.90;;;;;;10537618;28;20044;-77
2022/08/31 23:21:39;;;;;;;14.77;6.63;;;;;;;;;;10538998;28;20055;-77
2022/08/31 23:26:44;;;;;;;11.90;6.38;;;17.60;99.90;;;;;;10508339;28;20048;-76
2022/08/31 23:31:47;;;;;;;10.77;5.90;;;;;;;;;;10498521;28;20475;-78
2022/08/31 23:36:50;;;;;;;9.43;6.00;;;;;;;;;;10506257;28;20052;-76
2022/08/31 23:41:53;;;;;;;8.57;5.68;;;17.40;99.90;;;;;;10519909;28;20052;-76
2022/08/31 23:46:58;;;;;;;9.63;5.38;;;;;;;;;;10501578;28;20383;-77
2022/08/31 23:52:00;;;;;;;12.52;5.82;;;;;;;;;;10512149;28;20059;-79
2022/08/31 23:57:07;;;;;;;12.98;5.53;;;;;;;;;;10526321;28;20045;-77
